createdAt,value
2019-04-19T12:42:42.080Z,31.37
2019-04-19T12:43:40.880Z,31.01
2019-04-19T12:44:42.030Z,31.37
2019-04-19T12:45:42.058Z,31.49
2019-04-19T12:47:04.805Z,30.63
2019-04-19T12:48:04.982Z,31.29
2019-04-19T12:49:04.610Z,31.01
2019-04-19T12:50:07.557Z,31.01
2019-04-19T12:51:03.774Z,30.62
2019-04-19T12:52:04.108Z,30.91
2019-04-19T12:53:04.268Z,31.01
2019-04-19T12:54:03.704Z,32.54
2019-04-19T12:54:56.751Z,32.82
2019-04-19T12:55:44.127Z,31.96
2019-04-19T12:56:44.288Z,31.67
2019-04-19T12:57:43.948Z,31.28
2019-04-19T12:58:44.050Z,31.37
2019-04-19T12:59:44.258Z,30.69
2019-04-19T13:00:43.864Z,30.60
2019-04-19T13:01:43.957Z,30.51
2019-04-19T13:02:44.988Z,31.57
2019-04-19T13:03:44.477Z,32.91
2019-04-19T13:04:44.381Z,31.94
2019-04-19T13:05:43.759Z,31.86
2019-04-19T13:06:44.089Z,31.47
2019-04-19T13:07:43.717Z,30.60
2019-04-19T13:08:43.695Z,30.69
2019-04-19T13:09:44.614Z,30.41
2019-04-19T13:10:44.863Z,29.26
2019-04-19T13:11:43.629Z,31.28
2019-04-19T13:12:44.030Z,31.37
2019-04-19T13:13:43.780Z,30.41
2019-04-19T13:14:43.897Z,31.47
2019-04-19T13:24:24.551Z,35.04
2019-04-19T13:25:23.967Z,34.47
2019-04-19T13:26:25.139Z,34.47
2019-04-19T13:27:36.516Z,33.99
2019-04-19T13:28:23.912Z,33.72
2019-04-19T13:29:25.253Z,33.14
2019-04-19T13:30:33.037Z,33.33
2019-04-19T13:31:24.834Z,33.04
2019-04-19T13:32:23.955Z,32.57
2019-04-19T13:33:24.118Z,32.28
2019-04-19T13:34:25.017Z,32.37
2019-04-19T13:35:23.791Z,32.57
2019-04-19T13:36:24.822Z,32.47
2019-04-19T13:37:24.901Z,31.89
2019-04-19T13:38:23.743Z,32.09
2019-04-19T13:39:23.727Z,32.67
2019-04-19T13:40:24.216Z,32.10
2019-04-19T13:41:25.009Z,31.71
2019-04-19T13:42:24.565Z,32.18
2019-04-19T13:43:24.832Z,32.46
2019-04-19T13:44:24.964Z,32.75
2019-04-19T13:45:29.660Z,33.23
2019-04-19T13:46:24.543Z,33.72
2019-04-19T13:47:24.630Z,33.60
2019-04-19T13:48:24.915Z,33.80
2019-04-19T13:49:24.431Z,33.62
2019-04-19T13:50:29.470Z,33.14
2019-04-19T13:51:24.715Z,31.52
2019-04-19T13:52:24.296Z,30.35
2019-04-19T13:53:24.587Z,29.50
2019-04-19T13:54:24.846Z,29.40
2019-04-19T13:55:24.444Z,29.41
2019-04-19T13:56:24.777Z,28.54
2019-04-19T13:57:23.797Z,27.57
2019-04-19T13:58:23.415Z,28.83
2019-04-19T13:59:37.665Z,27.86
2019-04-19T14:00:24.600Z,28.05
2019-04-19T14:01:24.582Z,29.12
2019-04-19T14:02:23.350Z,27.39
2019-04-19T14:03:23.515Z,27.87
2019-04-19T14:04:23.689Z,26.51
2019-04-19T14:05:23.414Z,26.53
2019-04-19T14:06:24.469Z,25.36
2019-04-19T14:07:23.273Z,26.42
2019-04-19T14:08:23.259Z,26.42
2019-04-19T14:09:23.251Z,26.22
2019-04-19T14:10:23.377Z,26.03
2019-04-19T14:11:23.212Z,26.50
2019-04-19T14:12:23.195Z,26.70
2019-04-19T14:13:23.279Z,26.79
2019-04-19T14:14:23.398Z,26.98
2019-04-19T14:15:23.145Z,26.98
2019-04-19T14:16:23.838Z,26.40
2019-04-19T14:17:24.097Z,26.21
2019-04-19T14:18:23.106Z,26.40
2019-04-19T14:19:23.085Z,26.89
2019-04-19T14:20:32.598Z,26.81
2019-04-19T14:21:23.110Z,26.42
2019-04-19T14:22:23.437Z,26.22
2019-04-19T14:23:23.604Z,26.22
2019-04-19T14:24:23.005Z,26.12
2019-04-19T14:25:23.319Z,25.25
2019-04-19T14:26:36.880Z,26.32
2019-04-19T14:27:23.490Z,26.42
2019-04-19T14:28:23.321Z,25.84
2019-04-19T14:29:23.332Z,25.74
2019-04-19T14:30:23.602Z,25.54
2019-04-19T14:31:23.999Z,25.05
2019-04-19T14:32:23.288Z,25.64
2019-04-19T14:33:23.158Z,25.46
2019-04-19T14:34:22.848Z,24.68
2019-04-19T14:35:23.937Z,25.07
2019-04-19T14:36:23.986Z,24.68
2019-04-19T14:37:22.801Z,24.78
2019-04-19T14:38:23.598Z,24.78
2019-04-19T14:39:22.785Z,25.16
2019-04-19T14:40:23.699Z,25.15
2019-04-19T14:41:23.184Z,24.97
2019-04-19T14:42:26.015Z,25.05
2019-04-19T14:43:22.796Z,25.15
2019-04-19T14:44:22.693Z,24.87
2019-04-19T14:45:23.915Z,25.05
2019-04-19T14:46:22.783Z,24.77
2019-04-19T14:47:23.197Z,24.96
2019-04-19T14:48:28.479Z,24.77
2019-04-19T14:49:22.895Z,24.96
2019-04-19T14:50:23.167Z,25.35
2019-04-19T14:51:27.968Z,25.45
2019-04-19T14:52:23.633Z,25.05
2019-04-19T14:53:22.553Z,25.15
2019-04-19T14:54:23.342Z,24.67
2019-04-19T14:55:23.241Z,25.25
2019-04-19T14:56:23.730Z,25.07
2019-04-19T14:57:23.173Z,25.05
2019-04-19T14:58:22.477Z,24.96
2019-04-19T14:59:22.558Z,25.25
2019-04-19T15:00:22.982Z,24.67
2019-04-19T15:01:22.430Z,24.67
2019-04-19T15:02:22.805Z,24.87
2019-04-19T15:03:22.976Z,24.77
2019-04-19T15:04:22.383Z,24.48
2019-04-19T15:05:23.516Z,24.28
2019-04-19T15:06:22.354Z,24.67
2019-04-19T15:07:22.800Z,24.38
2019-04-19T15:08:22.569Z,24.67
2019-04-19T15:09:23.564Z,24.77
2019-04-19T15:10:22.291Z,24.87
2019-04-19T15:11:23.421Z,24.48
2019-04-19T15:12:22.838Z,24.28
2019-04-19T15:13:23.018Z,24.58
2019-04-19T15:14:22.227Z,24.38
2019-04-19T15:15:22.380Z,24.77
2019-04-19T15:16:23.214Z,23.99
2019-04-19T15:17:23.515Z,23.99
2019-04-19T15:18:23.298Z,24.38
2019-04-19T15:19:23.093Z,24.57
2019-04-19T15:20:22.250Z,24.67
2019-04-19T15:21:23.588Z,24.67
2019-04-19T15:22:22.156Z,25.05
2019-04-19T15:23:22.535Z,24.87
2019-04-19T15:24:22.963Z,24.96
2019-04-19T15:25:22.060Z,24.48
2019-04-19T15:26:22.684Z,24.87
2019-04-19T15:27:23.129Z,23.89
2019-04-19T15:28:22.743Z,23.79
2019-04-19T15:29:22.902Z,24.49
2019-04-19T15:30:23.136Z,24.57
2019-04-19T15:31:21.964Z,24.77
2019-04-19T15:32:22.301Z,24.96
2019-04-19T15:33:22.658Z,25.25
2019-04-19T15:34:21.997Z,25.45
2019-04-19T15:35:21.902Z,25.05
2019-04-19T15:36:21.888Z,25.35
2019-04-19T15:37:23.074Z,25.45
2019-04-19T15:38:21.856Z,25.05
2019-04-19T15:39:21.948Z,25.54
2019-04-19T15:40:22.439Z,25.15
2019-04-19T15:41:22.084Z,25.45
2019-04-19T15:42:22.644Z,25.15
2019-04-19T15:43:21.779Z,25.05
2019-04-19T15:44:22.369Z,25.15
2019-04-19T15:45:22.929Z,25.05
2019-04-19T15:46:21.847Z,24.97
2019-04-19T15:47:21.718Z,23.99
2019-04-19T15:48:32.935Z,24.38
2019-04-19T15:49:21.871Z,24.87
2019-04-19T15:50:22.126Z,24.29
2019-04-19T15:51:27.135Z,23.99
2019-04-19T15:52:22.014Z,23.70
2019-04-19T15:53:22.186Z,24.28
2019-04-19T15:54:21.606Z,23.89
2019-04-19T15:55:21.909Z,23.99
2019-04-19T15:56:22.337Z,24.18
2019-04-19T15:57:21.560Z,24.67
2019-04-19T15:58:22.413Z,24.67
2019-04-19T15:59:23.905Z,24.67
2019-04-19T16:00:22.300Z,24.77
2019-04-19T16:01:21.911Z,24.48
2019-04-19T16:02:22.072Z,24.18
2019-04-19T16:03:22.287Z,24.67
2019-04-19T16:04:21.831Z,23.99
2019-04-19T16:05:22.176Z,24.28
2019-04-19T16:06:22.475Z,23.79
2019-04-19T16:07:21.897Z,23.89
2019-04-19T16:08:22.541Z,23.80
2019-04-19T16:09:21.508Z,23.79
2019-04-19T16:10:22.353Z,23.99
2019-04-19T16:11:22.567Z,23.99
2019-04-19T16:12:21.779Z,24.08
2019-04-19T16:13:21.312Z,24.08
2019-04-19T16:14:21.901Z,23.89
2019-04-19T16:15:22.154Z,23.79
2019-04-19T16:16:23.073Z,23.79
2019-04-19T16:17:21.252Z,23.89
2019-04-19T16:18:22.217Z,23.79
2019-04-19T16:19:22.518Z,24.08
2019-04-19T16:20:21.232Z,23.99
2019-04-19T16:21:27.090Z,23.99
2019-04-19T16:22:22.384Z,23.89
2019-04-19T16:23:21.157Z,23.79
2019-04-19T16:24:21.143Z,23.79
2019-04-19T16:25:21.256Z,23.70
2019-04-19T16:26:21.261Z,23.60
2019-04-19T16:27:21.094Z,23.79
2019-04-19T16:28:21.386Z,23.80
2019-04-19T16:29:27.804Z,23.89
2019-04-19T16:30:21.045Z,23.89
2019-04-19T16:31:22.267Z,23.89
2019-04-19T16:32:21.203Z,24.18
2019-04-19T16:33:22.057Z,24.48
2019-04-19T16:34:20.982Z,24.38
2019-04-19T16:35:22.195Z,24.48
2019-04-19T16:36:21.176Z,24.28
2019-04-19T16:37:20.946Z,24.67
2019-04-19T16:38:21.914Z,24.96
2019-04-19T16:39:21.386Z,23.90
2019-04-19T16:40:20.889Z,23.80
2019-04-19T16:41:20.874Z,23.89
2019-04-19T16:42:21.019Z,23.90
2019-04-19T16:43:21.579Z,23.89
2019-04-19T16:44:20.828Z,24.49
2019-04-19T16:45:21.926Z,25.05
2019-04-19T16:46:24.219Z,25.15
2019-04-19T16:47:21.660Z,25.05
2019-04-19T16:48:20.764Z,25.26
2019-04-19T16:49:20.749Z,25.15
2019-04-19T16:50:20.786Z,25.05
2019-04-19T16:51:32.094Z,25.25
2019-04-19T16:52:20.702Z,25.05
2019-04-19T16:53:21.830Z,25.64
2019-04-19T16:54:20.671Z,25.65
2019-04-19T16:55:21.222Z,25.16
2019-04-19T16:56:21.767Z,25.64
2019-04-19T16:57:25.258Z,25.35
2019-04-19T16:58:20.867Z,25.45
2019-04-19T16:59:21.742Z,25.65
2019-04-19T17:00:20.597Z,28.17
2019-04-19T17:01:20.884Z,26.14
2019-04-19T17:02:20.545Z,25.56
2019-04-19T17:03:21.586Z,25.35
2019-04-19T17:04:23.221Z,25.36
2019-04-19T17:05:20.891Z,25.46
2019-04-19T17:06:20.495Z,24.88
2019-04-19T17:07:20.713Z,25.26
2019-04-19T17:08:21.688Z,25.07
2019-04-19T17:09:20.764Z,25.15
2019-04-19T17:10:21.640Z,25.56
2019-04-19T17:11:21.663Z,25.16
2019-04-19T17:12:20.940Z,25.65
2019-04-19T17:13:20.594Z,25.65
2019-04-19T17:14:21.017Z,25.16
2019-04-19T17:15:21.157Z,25.16
2019-04-19T17:16:20.329Z,25.05
2019-04-19T17:17:20.470Z,25.56
2019-04-19T17:18:20.711Z,25.36
2019-04-19T17:19:21.081Z,25.16
2019-04-19T17:20:21.561Z,25.65
2019-04-19T17:21:20.260Z,25.56
2019-04-19T17:22:23.443Z,25.56
2019-04-19T17:23:20.218Z,25.36
2019-04-19T17:24:20.879Z,25.56
2019-04-19T17:25:21.123Z,25.56
2019-04-19T17:26:20.359Z,30.98
2019-04-19T17:27:25.056Z,31.27
2019-04-19T17:28:21.147Z,31.84
2019-04-19T17:29:20.122Z,31.84
2019-04-19T17:30:20.274Z,30.77
2019-04-19T17:31:20.324Z,33.09
2019-04-19T17:32:20.554Z,32.50
2019-04-19T17:33:20.155Z,32.21
2019-04-19T17:34:20.248Z,32.60
2019-04-19T17:35:20.477Z,31.63
2019-04-19T17:36:20.115Z,31.92
2019-04-19T17:37:20.272Z,32.60
2019-04-19T17:39:20.462Z,32.50
2019-04-19T17:39:47.132Z,32.60
2019-04-19T17:40:20.558Z,33.09
2019-04-19T17:41:20.763Z,33.18
2019-04-19T17:42:19.921Z,31.82
2019-04-19T17:43:19.907Z,33.09
2019-04-19T17:44:19.889Z,33.36
2019-04-19T17:45:19.997Z,33.17
2019-04-19T17:46:20.252Z,33.75
2019-04-19T17:47:24.355Z,33.94
2019-04-19T17:48:20.745Z,29.50
2019-04-19T17:49:20.370Z,32.87
2019-04-19T17:50:20.713Z,32.99
2019-04-19T17:51:19.943Z,30.37
2019-04-19T17:52:26.250Z,29.12
2019-04-19T17:53:20.515Z,30.19
2019-04-19T17:54:41.522Z,30.97
2019-04-19T17:55:27.460Z,30.97
2019-04-19T17:56:19.698Z,31.18
2019-04-19T17:57:20.925Z,30.77
2019-04-19T17:58:19.669Z,30.97
2019-04-19T17:59:21.132Z,30.97
2019-04-19T18:00:19.638Z,30.40
2019-04-19T18:01:20.231Z,30.69
2019-04-19T18:02:19.604Z,30.98
2019-04-19T18:03:20.447Z,30.88
2019-04-19T18:04:19.915Z,31.08
2019-04-19T18:05:20.135Z,30.98
2019-04-19T18:06:20.359Z,31.08
2019-04-19T18:07:20.773Z,31.18
2019-04-19T18:08:25.420Z,31.27
2019-04-19T18:09:21.259Z,30.59
2019-04-19T18:10:22.039Z,31.47
2019-04-19T18:11:22.665Z,31.95
2019-04-19T18:12:19.447Z,31.76
2019-04-19T18:13:19.506Z,31.85
2019-04-19T18:14:19.866Z,31.76
2019-04-19T18:15:19.660Z,32.05
2019-04-19T18:16:20.582Z,31.66
2019-04-19T18:17:19.369Z,31.76
2019-04-19T18:18:20.858Z,31.76
2019-04-19T18:19:24.104Z,31.85
2019-04-19T18:20:21.193Z,31.95
2019-04-19T18:21:19.405Z,32.05
2019-04-19T18:22:34.420Z,30.79
2019-04-19T18:23:30.424Z,31.66
2019-04-19T18:24:25.483Z,31.65
2019-04-19T18:25:20.127Z,31.84
2019-04-19T18:26:28.363Z,32.04
2019-04-19T18:27:24.692Z,32.13
2019-04-19T18:28:19.780Z,31.94
2019-04-19T18:29:23.176Z,32.04
2019-04-19T18:30:20.114Z,32.32
2019-04-19T18:31:25.985Z,32.71
2019-04-19T18:32:20.419Z,32.42
2019-04-19T18:33:20.196Z,32.71
2019-04-19T18:34:19.106Z,32.62
2019-04-19T18:35:25.249Z,32.71
2019-04-19T18:36:23.253Z,32.52
2019-04-19T18:37:22.667Z,32.91
2019-04-19T18:38:21.375Z,32.71
2019-04-19T18:39:20.120Z,32.81
2019-04-19T18:40:19.471Z,32.32
2019-04-19T18:41:18.997Z,32.71
2019-04-19T18:42:19.913Z,32.91
2019-04-19T18:43:27.902Z,32.32
2019-04-19T18:44:25.690Z,32.32
2019-04-19T18:45:24.756Z,32.32
2019-04-19T18:46:18.921Z,32.62
2019-04-19T18:47:18.903Z,32.42
2019-04-19T18:48:19.788Z,32.52
2019-04-19T18:49:18.871Z,32.42
2019-04-19T18:50:20.258Z,32.52
2019-04-19T18:51:30.815Z,32.71
2019-04-19T18:52:35.856Z,32.62
2019-04-19T18:53:28.534Z,32.81
2019-04-19T18:54:25.870Z,32.62
2019-04-19T18:55:27.318Z,33.11
2019-04-19T18:56:22.061Z,33.01
2019-04-19T18:57:19.013Z,33.11
2019-04-19T18:58:24.941Z,33.29
2019-04-19T18:59:22.695Z,33.11
2019-04-19T19:00:18.805Z,33.39
2019-04-19T19:01:25.753Z,33.29
2019-04-19T19:02:23.213Z,33.20
2019-04-19T19:03:19.897Z,33.11
2019-04-19T19:04:24.240Z,33.11
2019-04-19T19:05:18.624Z,33.11
2019-04-19T19:06:22.164Z,33.49
2019-04-19T19:07:23.404Z,33.39
2019-04-19T19:08:26.066Z,33.29
2019-04-19T19:09:21.256Z,32.91
2019-04-19T19:10:24.488Z,33.59
2019-04-19T19:11:20.981Z,33.01
2019-04-19T19:12:18.591Z,33.29
2019-04-19T19:13:27.628Z,33.59
2019-04-19T19:14:21.482Z,33.39
2019-04-19T19:15:18.755Z,33.39
2019-04-19T19:16:23.540Z,33.78
2019-04-19T19:17:20.527Z,33.88
2019-04-19T19:18:19.317Z,33.78
2019-04-19T19:19:25.208Z,33.78
2019-04-19T19:20:22.618Z,33.88
2019-04-19T19:21:18.388Z,34.08
2019-04-19T19:22:26.157Z,33.88
2019-04-19T19:23:32.713Z,33.78
2019-04-19T19:24:38.807Z,33.88
2019-04-19T19:25:24.950Z,33.69
2019-04-19T19:26:27.453Z,33.20
2019-04-19T19:27:23.483Z,33.98
2019-04-19T19:28:21.348Z,33.88
2019-04-19T19:29:18.457Z,33.69
2019-04-19T19:30:18.233Z,33.69
2019-04-19T19:31:18.789Z,33.78
2019-04-19T19:32:19.508Z,33.98
2019-04-19T19:33:22.093Z,33.78
2019-04-19T19:34:22.467Z,33.69
2019-04-19T19:35:22.001Z,33.29
2019-04-19T19:36:21.183Z,33.78
2019-04-19T19:37:20.791Z,33.78
2019-04-19T19:38:24.137Z,33.29
2019-04-19T19:39:26.664Z,33.29
2019-04-19T19:40:31.416Z,33.29
2019-04-19T19:41:33.746Z,33.78
2019-04-19T19:42:41.202Z,33.29
2019-04-19T19:43:36.876Z,34.08
2019-04-19T19:44:29.725Z,33.78
2019-04-19T19:45:36.230Z,33.39
2019-04-19T19:46:40.184Z,33.49
2019-04-19T19:47:41.009Z,33.59
2019-04-19T19:48:49.698Z,33.39
2019-04-19T19:49:40.463Z,33.49
2019-04-19T19:50:42.797Z,33.29
2019-04-19T19:51:29.552Z,33.39
2019-04-19T19:52:32.745Z,33.02
2019-04-19T19:53:49.083Z,33.20
2019-04-19T19:55:38.680Z,32.71
2019-04-19T19:57:30.034Z,32.42
2019-04-19T19:58:28.084Z,30.69
2019-04-19T19:59:28.294Z,30.30
2019-04-19T20:00:29.277Z,30.79
2019-04-19T20:01:32.501Z,29.43
2019-04-19T20:02:28.010Z,29.14
2019-04-19T20:03:24.462Z,29.04
2019-04-19T20:04:17.729Z,28.76
2019-04-19T20:05:23.063Z,28.66
2019-04-19T20:06:23.694Z,28.57
2019-04-19T20:07:22.063Z,28.57
2019-04-19T20:08:22.788Z,28.57
2019-04-19T20:09:23.032Z,28.66
2019-04-19T20:10:19.357Z,28.76
2019-04-19T20:11:23.610Z,28.66
2019-04-19T20:12:20.564Z,28.57
2019-04-19T20:13:19.420Z,28.28
2019-04-19T20:14:21.455Z,28.55
2019-04-19T20:15:18.588Z,28.38
2019-04-19T20:16:23.653Z,28.08
2019-04-19T20:17:18.175Z,28.38
2019-04-19T20:18:18.205Z,27.87
2019-04-19T20:19:19.696Z,28.17
2019-04-19T20:20:20.475Z,27.97
2019-04-19T20:21:19.927Z,27.97
2019-04-19T20:22:17.414Z,27.98
2019-04-19T20:23:25.805Z,27.68
2019-04-19T20:24:34.058Z,27.87
2019-04-19T20:25:28.450Z,27.87
2019-04-19T20:26:26.325Z,28.07
2019-04-19T20:27:21.919Z,27.78
2019-04-19T20:28:23.433Z,27.87
2019-04-19T20:29:23.905Z,27.97
2019-04-19T20:30:17.284Z,27.59
2019-04-19T20:31:24.098Z,27.59
2019-04-19T20:32:20.407Z,27.21
2019-04-19T20:33:18.359Z,27.68
2019-04-19T20:34:22.842Z,27.31
2019-04-19T20:35:21.161Z,27.78
2019-04-19T20:36:17.184Z,27.87
2019-04-19T20:37:20.426Z,27.59
2019-04-19T20:38:21.514Z,27.87
2019-04-19T20:39:24.013Z,27.78
2019-04-19T20:40:18.026Z,27.87
2019-04-19T20:41:17.105Z,27.79
2019-04-19T20:42:27.063Z,27.59
2019-04-19T20:43:36.208Z,27.50
2019-04-19T20:44:37.843Z,27.50
2019-04-19T20:45:29.131Z,27.40
2019-04-19T20:46:21.830Z,27.97
2019-04-19T20:47:23.100Z,27.48
2019-04-19T20:48:22.461Z,27.97
2019-04-19T20:49:17.196Z,27.29
2019-04-19T20:50:25.438Z,27.58
2019-04-19T20:51:34.047Z,27.68
2019-04-19T20:52:30.889Z,27.48
2019-04-19T20:53:25.278Z,27.58
2019-04-19T20:54:42.633Z,27.87
2019-04-19T20:55:35.831Z,27.87
2019-04-19T20:56:48.022Z,27.78
2019-04-19T20:57:33.682Z,27.97
2019-04-19T20:58:27.614Z,28.05
2019-04-19T20:59:18.078Z,28.05
2019-04-19T21:00:16.775Z,27.87
2019-04-19T21:01:17.001Z,27.78
2019-04-19T21:02:23.778Z,28.26
2019-04-19T21:03:24.615Z,27.48
2019-04-19T21:04:18.537Z,27.87
2019-04-19T21:05:17.688Z,28.17
2019-04-19T21:06:22.142Z,27.78
2019-04-19T21:07:19.981Z,27.57
2019-04-19T21:08:20.805Z,27.58
2019-04-19T21:09:24.041Z,27.47
2019-04-19T21:10:18.597Z,28.05
2019-04-19T21:11:17.235Z,27.47
2019-04-19T21:12:22.728Z,27.67
2019-04-19T21:13:19.579Z,27.76
2019-04-19T21:14:16.531Z,27.76
2019-04-19T21:15:22.359Z,28.05
2019-04-19T21:16:16.499Z,27.86
2019-04-19T21:17:16.622Z,27.86
2019-04-19T21:18:21.868Z,28.15
2019-04-19T21:19:16.448Z,27.86
2019-04-19T21:20:19.769Z,28.05
2019-04-19T21:21:18.337Z,27.96
2019-04-19T21:22:25.734Z,28.15
2019-04-19T21:23:21.936Z,28.07
2019-04-19T21:24:16.427Z,28.34
2019-04-19T21:25:21.359Z,28.55
2019-04-19T21:26:23.062Z,28.45
2019-04-19T21:27:22.426Z,28.55
2019-04-19T21:28:16.744Z,28.85
2019-04-19T21:29:21.032Z,28.45
2019-04-19T21:30:16.781Z,30.11
2019-04-19T21:31:19.332Z,29.43
2019-04-19T21:32:22.500Z,29.14
2019-04-19T21:33:18.644Z,28.85
2019-04-19T21:34:16.213Z,28.94
2019-04-19T21:35:17.461Z,28.65
2019-04-19T21:36:17.891Z,28.45
2019-04-19T21:37:26.604Z,28.65
2019-04-19T21:38:21.529Z,29.04
2019-04-19T21:39:18.334Z,28.94
2019-04-19T21:40:24.188Z,28.85
2019-04-19T21:41:22.923Z,29.41
2019-04-19T21:42:18.960Z,29.14
2019-04-19T21:43:16.952Z,29.24
2019-04-19T21:44:19.901Z,29.02
2019-04-19T21:45:16.029Z,30.29
2019-04-19T21:46:20.187Z,31.26
2019-04-19T21:47:15.999Z,30.68
2019-04-19T21:48:18.049Z,29.41
2019-04-19T21:49:19.314Z,29.41
2019-04-19T21:50:16.966Z,29.41
2019-04-19T21:51:21.704Z,29.43
2019-04-19T21:52:20.505Z,29.82
2019-04-19T21:53:16.584Z,29.33
2019-04-19T21:54:16.664Z,29.04
2019-04-19T21:55:25.367Z,29.14
2019-04-19T21:56:17.189Z,28.85
2019-04-19T21:57:22.655Z,28.74
2019-04-19T21:58:19.523Z,28.26
2019-04-19T21:59:15.801Z,29.02
2019-04-19T22:00:21.100Z,28.64
2019-04-19T22:01:17.810Z,28.54
2019-04-19T22:02:25.630Z,28.64
2019-04-19T22:03:20.094Z,28.54
2019-04-19T22:04:17.166Z,28.74
2019-04-19T22:05:18.301Z,28.54
2019-04-19T22:06:21.446Z,28.81
2019-04-19T22:07:17.060Z,28.72
2019-04-19T22:08:24.070Z,28.44
2019-04-19T22:09:20.481Z,28.63
2019-04-19T22:10:15.607Z,28.63
2019-04-19T22:11:16.317Z,28.63
2019-04-19T22:12:16.533Z,28.72
2019-04-19T22:13:16.685Z,28.81
2019-04-19T22:14:21.447Z,28.72
2019-04-19T22:15:15.841Z,29.01
2019-04-19T22:16:16.664Z,28.81
2019-04-19T22:17:21.012Z,28.63
2019-04-19T22:18:15.470Z,29.01
2019-04-19T22:19:21.539Z,28.43
2019-04-19T22:20:19.527Z,29.01
2019-04-19T22:21:16.637Z,28.81
2019-04-19T22:22:23.560Z,28.53
2019-04-19T22:23:16.207Z,28.72
2019-04-19T22:24:22.242Z,28.91
2019-04-19T22:25:31.085Z,29.11
2019-04-19T22:26:25.068Z,29.10
2019-04-19T22:27:15.656Z,29.00
2019-04-19T22:28:15.392Z,29.21
2019-04-19T22:29:15.551Z,29.11
2019-04-19T22:30:15.712Z,29.00
2019-04-19T22:31:20.823Z,29.28
2019-04-19T22:32:17.574Z,29.38
2019-04-19T22:33:16.391Z,29.38
2019-04-19T22:34:15.180Z,29.58
2019-04-19T22:35:19.036Z,29.48
2019-04-19T22:36:15.457Z,29.38
2019-04-19T22:37:23.513Z,29.38
2019-04-19T22:38:17.861Z,29.38
2019-04-19T22:39:15.826Z,29.28
2019-04-19T22:40:16.459Z,29.28
2019-04-19T22:41:16.892Z,29.38
2019-04-19T22:42:15.081Z,29.48
2019-04-19T22:43:16.327Z,29.48
2019-04-19T22:44:15.016Z,29.97
2019-04-19T22:45:20.107Z,29.77
2019-04-19T22:46:15.737Z,29.97
2019-04-19T22:47:17.702Z,29.97
2019-04-19T22:48:18.276Z,30.16
2019-04-19T22:49:16.509Z,30.07
2019-04-19T22:50:17.949Z,30.35
2019-04-19T22:51:18.392Z,30.16
2019-04-19T22:52:14.867Z,30.26
2019-04-19T22:53:19.111Z,30.45
2019-04-19T22:54:14.957Z,30.26
2019-04-19T22:55:17.645Z,30.55
2019-04-19T22:56:22.719Z,30.65
2019-04-19T22:57:18.844Z,30.65
2019-04-19T22:58:21.244Z,30.74
2019-04-19T22:59:18.286Z,30.74
2019-04-19T23:00:15.972Z,30.55
2019-04-19T23:01:19.752Z,30.76
2019-04-19T23:02:14.694Z,30.66
2019-04-19T23:03:25.104Z,30.76
2019-04-19T23:04:19.171Z,30.76
2019-04-19T23:05:14.942Z,30.65
2019-04-19T23:06:19.859Z,30.65
2019-04-19T23:07:14.645Z,30.84
2019-04-19T23:08:19.247Z,30.55
2019-04-19T23:09:19.118Z,30.84
2019-04-19T23:10:14.848Z,30.85
2019-04-19T23:11:15.241Z,30.94
2019-04-19T23:12:14.524Z,30.66
2019-04-19T23:13:15.559Z,30.84
2019-04-19T23:14:14.491Z,30.66
2019-04-19T23:15:19.298Z,30.85
2019-04-19T23:16:15.430Z,31.23
2019-04-19T23:17:14.609Z,31.04
2019-04-19T23:18:18.700Z,31.04
2019-04-19T23:19:14.757Z,30.94
2019-04-19T23:20:19.835Z,31.04
2019-04-19T23:21:19.483Z,30.84
2019-04-19T23:22:14.386Z,30.94
2019-04-19T23:23:21.668Z,30.94
2019-04-19T23:24:16.257Z,31.04
2019-04-19T23:25:15.610Z,31.04
2019-04-19T23:26:22.457Z,30.94
2019-04-19T23:27:21.652Z,31.04
2019-04-19T23:28:22.205Z,31.04
2019-04-19T23:29:21.907Z,30.84
2019-04-19T23:30:18.816Z,31.04
2019-04-19T23:31:15.999Z,30.94
2019-04-19T23:32:17.701Z,30.94
2019-04-19T23:33:18.081Z,30.84
2019-04-19T23:34:14.313Z,31.04
2019-04-19T23:35:14.247Z,30.84
2019-04-19T23:36:18.934Z,31.23
2019-04-19T23:37:16.747Z,31.13
2019-04-19T23:38:19.854Z,31.23
2019-04-19T23:39:15.549Z,30.65
2019-04-19T23:40:15.132Z,30.74
2019-04-19T23:41:15.201Z,30.65
2019-04-19T23:42:15.123Z,30.84
2019-04-19T23:43:15.910Z,30.74
2019-04-19T23:44:17.996Z,30.74
2019-04-19T23:45:14.702Z,30.94
2019-04-19T23:46:19.484Z,30.94
2019-04-19T23:47:13.929Z,31.04
2019-04-19T23:48:20.124Z,30.84
2019-04-19T23:49:16.106Z,31.04
2019-04-19T23:50:13.877Z,31.04
2019-04-19T23:51:16.510Z,31.13
2019-04-19T23:52:14.939Z,31.04
2019-04-19T23:53:14.380Z,31.04
2019-04-19T23:54:20.586Z,31.04
2019-04-19T23:55:14.627Z,30.94
2019-04-19T23:56:22.618Z,30.84
2019-04-19T23:57:19.823Z,30.74
2019-04-19T23:58:22.913Z,30.94
2019-04-19T23:59:18.996Z,31.23
